Time,TemperatureF,DewpointF,PressureIn,WindDirection,WindDirectionDegrees,WindSpeedMPH,WindSpeedGustMPH,Humidity,HourlyPrecipIn,Conditions,Clouds,dailyrainin,SolarRadiationWatts/m^2,SoftwareType,DateUTC
2013-07-01 00:01:00,65.0,65.0,-100.00,ESE,122,1.0,4.0,99,0.02,,,0.08,0.000000,,2013-07-01 04:01:00,
2013-07-01 00:11:00,65.0,65.0,-100.00,ESE,122,1.0,4.0,99,0.02,,,0.08,0.000000,,2013-07-01 04:11:00,
2013-07-01 00:22:00,65.0,65.0,-100.00,ESE,122,1.0,4.0,99,0.02,,,0.08,0.000000,,2013-07-01 04:22:00,
2013-07-01 00:53:00,64.0,64.0,-100.00,SE,125,1.0,3.0,100,0.02,,,0.10,0.000000,,2013-07-01 04:53:00,
2013-07-01 01:02:00,64.0,64.0,-100.00,SE,125,1.0,3.0,100,0.02,,,0.10,0.000000,,2013-07-01 05:02:00,
2013-07-01 01:11:00,64.0,64.0,-100.00,SE,125,1.0,3.0,100,0.02,,,0.10,0.000000,,2013-07-01 05:11:00,
2013-07-01 01:22:00,64.0,64.0,-100.00,SE,125,1.0,3.0,100,0.02,,,0.10,0.000000,,2013-07-01 05:22:00,
2013-07-01 01:52:00,64.0,64.0,-100.00,ESE,105,1.0,2.0,100,0.00,,,0.10,0.000000,,2013-07-01 05:52:00,
2013-07-01 02:02:00,64.0,64.0,-100.00,ESE,105,1.0,2.0,100,0.00,,,0.10,0.000000,,2013-07-01 06:02:00,
2013-07-01 02:12:00,64.0,64.0,-100.00,ESE,105,1.0,2.0,100,0.00,,,0.10,0.000000,,2013-07-01 06:12:00,
2013-07-01 02:24:00,64.0,64.0,-100.00,ESE,105,1.0,2.0,100,0.00,,,0.10,0.000000,,2013-07-01 06:24:00,
2013-07-01 02:53:00,63.0,63.0,-100.00,SE,124,1.0,2.0,100,0.00,,,0.10,0.000000,,2013-07-01 06:53:00,
2013-07-01 03:02:00,63.0,63.0,-100.00,SE,124,1.0,2.0,100,0.00,,,0.10,0.000000,,2013-07-01 07:02:00,
2013-07-01 03:12:00,63.0,63.0,-100.00,SE,124,1.0,2.0,100,0.00,,,0.10,0.000000,,2013-07-01 07:12:00,
2013-07-01 03:22:00,63.0,63.0,-100.00,SE,124,1.0,2.0,100,0.00,,,0.10,0.000000,,2013-07-01 07:22:00,
2013-07-01 03:53:00,63.0,63.0,-100.00,ESE,113,2.0,3.0,100,0.00,,,-99.99,0.000000,,2013-07-01 07:53:00,
2013-07-01 04:01:00,63.0,63.0,-100.00,ESE,113,2.0,3.0,100,0.00,,,-99.99,0.000000,,2013-07-01 08:01:00,
2013-07-01 04:12:00,63.0,63.0,-100.00,ESE,113,2.0,3.0,100,0.00,,,-99.99,0.000000,,2013-07-01 08:12:00,
2013-07-01 04:22:00,63.0,63.0,-100.00,ESE,113,2.0,3.0,100,0.00,,,-99.99,0.000000,,2013-07-01 08:22:00,
2013-07-01 04:52:00,63.0,63.0,-100.00,ESE,113,0.0,2.0,100,0.00,,,0.05,0.000000,,2013-07-01 08:52:00,
2013-07-01 05:02:00,63.0,63.0,-100.00,ESE,113,0.0,2.0,100,0.00,,,0.05,0.000000,,2013-07-01 09:02:00,
2013-07-01 05:12:00,63.0,63.0,-100.00,ESE,113,0.0,2.0,100,0.00,,,0.05,0.000000,,2013-07-01 09:12:00,
2013-07-01 05:22:00,63.0,63.0,-100.00,ESE,113,0.0,2.0,100,0.00,,,0.05,0.000000,,2013-07-01 09:22:00,
2013-07-01 05:53:00,63.0,63.0,-100.00,East,86,1.0,2.0,100,0.00,,,0.04,0.000000,,2013-07-01 09:53:00,
2013-07-01 06:03:00,63.0,63.0,-100.00,East,86,1.0,2.0,100,0.00,,,0.04,0.000000,,2013-07-01 10:03:00,
2013-07-01 06:12:00,63.0,63.0,-100.00,East,86,1.0,2.0,100,0.00,,,0.04,0.000000,,2013-07-01 10:12:00,
2013-07-01 06:22:00,63.0,63.0,-100.00,East,86,1.0,2.0,100,0.00,,,0.04,0.000000,,2013-07-01 10:22:00,
2013-07-01 06:52:00,64.0,64.0,-100.00,ESE,117,0.0,2.0,100,0.00,,,0.04,17.000000,,2013-07-01 10:52:00,
2013-07-01 07:02:00,64.0,64.0,-100.00,ESE,117,0.0,2.0,100,0.00,,,0.04,17.000000,,2013-07-01 11:02:00,
2013-07-01 07:12:00,64.0,64.0,-100.00,ESE,117,0.0,2.0,100,0.00,,,0.04,17.000000,,2013-07-01 11:12:00,
2013-07-01 07:22:00,64.0,64.0,-100.00,ESE,117,0.0,2.0,100,0.00,,,0.04,17.000000,,2013-07-01 11:22:00,
2013-07-01 07:52:00,65.0,65.0,-100.00,ESE,123,1.0,3.0,100,0.00,,,0.04,64.000000,,2013-07-01 11:52:00,
2013-07-01 08:01:00,65.0,65.0,-100.00,ESE,123,1.0,3.0,100,0.00,,,0.04,64.000000,,2013-07-01 12:01:00,
2013-07-01 08:11:00,65.0,65.0,-100.00,ESE,123,1.0,3.0,100,0.00,,,0.04,64.000000,,2013-07-01 12:11:00,
2013-07-01 08:22:00,65.0,65.0,-100.00,ESE,123,1.0,3.0,100,0.00,,,0.04,64.000000,,2013-07-01 12:22:00,
2013-07-01 08:53:00,71.0,65.0,-100.00,NNW,337,2.0,4.0,81,0.00,,,0.04,259.000000,,2013-07-01 12:53:00,
2013-07-01 09:02:00,71.0,65.0,-100.00,NNW,337,2.0,4.0,81,0.00,,,0.04,259.000000,,2013-07-01 13:02:00,
2013-07-01 09:12:00,71.0,65.0,-100.00,NNW,337,2.0,4.0,81,0.00,,,0.04,259.000000,,2013-07-01 13:12:00,
2013-07-01 09:23:00,71.0,65.0,-100.00,NNW,337,2.0,4.0,81,0.00,,,0.04,259.000000,,2013-07-01 13:23:00,
2013-07-01 10:02:00,70.0,65.0,-100.00,WNW,285,1.0,4.0,83,0.00,,,0.04,218.000000,,2013-07-01 14:02:00,
2013-07-01 10:11:00,70.0,65.0,-100.00,WNW,285,1.0,4.0,83,0.00,,,0.04,218.000000,,2013-07-01 14:11:00,
2013-07-01 10:22:00,70.0,65.0,-100.00,WNW,285,1.0,4.0,83,0.00,,,0.04,218.000000,,2013-07-01 14:22:00,
2013-07-01 10:53:00,73.0,65.0,-100.00,NW,305,2.0,5.0,75,0.00,,,0.04,320.000000,,2013-07-01 14:53:00,
2013-07-01 11:02:00,73.0,65.0,-100.00,NW,305,2.0,5.0,75,0.00,,,0.04,320.000000,,2013-07-01 15:02:00,
2013-07-01 11:12:00,73.0,65.0,-100.00,NW,305,2.0,5.0,75,0.00,,,0.04,320.000000,,2013-07-01 15:12:00,
2013-07-01 11:23:00,73.0,65.0,-100.00,NW,305,2.0,5.0,75,0.00,,,0.04,320.000000,,2013-07-01 15:23:00,
2013-07-01 12:01:00,73.0,63.0,-100.00,NW,310,2.0,5.0,72,0.00,,,0.04,277.000000,,2013-07-01 16:01:00,
2013-07-01 12:11:00,73.0,63.0,-100.00,NW,310,2.0,5.0,72,0.00,,,0.04,277.000000,,2013-07-01 16:11:00,
2013-07-01 12:22:00,73.0,63.0,-100.00,NW,310,2.0,5.0,72,0.00,,,0.04,277.000000,,2013-07-01 16:22:00,
2013-07-01 12:53:00,76.0,64.0,-100.00,NNW,333,2.0,7.0,67,0.00,,,0.04,358.000000,,2013-07-01 16:53:00,
2013-07-01 13:02:00,76.0,64.0,-100.00,NNW,333,2.0,7.0,67,0.00,,,0.04,358.000000,,2013-07-01 17:02:00,
2013-07-01 13:12:00,76.0,64.0,-100.00,NNW,333,2.0,7.0,67,0.00,,,0.04,358.000000,,2013-07-01 17:12:00,
2013-07-01 13:23:00,76.0,64.0,-100.00,NNW,333,2.0,7.0,67,0.00,,,0.04,358.000000,,2013-07-01 17:23:00,
2013-07-01 13:53:00,75.0,65.0,-100.00,NNW,333,2.0,5.0,72,0.00,,,0.04,383.000000,,2013-07-01 17:53:00,
2013-07-01 14:02:00,75.0,65.0,-100.00,NNW,333,2.0,5.0,72,0.00,,,0.04,383.000000,,2013-07-01 18:02:00,
2013-07-01 14:11:00,75.0,65.0,-100.00,NNW,333,2.0,5.0,72,0.00,,,0.04,383.000000,,2013-07-01 18:11:00,
2013-07-01 14:22:00,75.0,65.0,-100.00,NNW,333,2.0,5.0,72,0.00,,,0.04,383.000000,,2013-07-01 18:22:00,
2013-07-01 14:53:00,74.0,64.0,-100.00,North,360,3.0,7.0,71,0.00,,,0.04,360.000000,,2013-07-01 18:53:00,
2013-07-01 15:02:00,74.0,64.0,-100.00,North,360,3.0,7.0,71,0.00,,,0.04,360.000000,,2013-07-01 19:02:00,
2013-07-01 15:11:00,74.0,64.0,-100.00,North,360,3.0,7.0,71,0.00,,,0.04,360.000000,,2013-07-01 19:11:00,
2013-07-01 15:22:00,74.0,64.0,-100.00,North,360,3.0,7.0,71,0.00,,,0.04,360.000000,,2013-07-01 19:22:00,
2013-07-01 15:53:00,73.0,63.0,-100.00,NW,314,3.0,7.0,72,0.00,,,0.04,246.000000,,2013-07-01 19:53:00,
2013-07-01 16:02:00,73.0,63.0,-100.00,NW,314,3.0,7.0,72,0.00,,,0.04,246.000000,,2013-07-01 20:02:00,
2013-07-01 16:11:00,73.0,63.0,-100.00,NW,314,3.0,7.0,72,0.00,,,0.04,246.000000,,2013-07-01 20:11:00,
2013-07-01 16:22:00,73.0,63.0,-100.00,NW,314,3.0,7.0,72,0.00,,,0.04,246.000000,,2013-07-01 20:22:00,
2013-07-01 17:02:00,72.0,63.0,-100.00,NNE,32,2.0,7.0,74,0.00,,,0.04,169.000000,,2013-07-01 21:02:00,
2013-07-01 17:11:00,72.0,63.0,-100.00,NNE,32,2.0,7.0,74,0.00,,,0.04,169.000000,,2013-07-01 21:11:00,
2013-07-01 17:24:00,72.0,63.0,-100.00,NNE,32,2.0,7.0,74,0.00,,,0.04,169.000000,,2013-07-01 21:24:00,
2013-07-01 17:53:00,71.0,63.0,-100.00,NNE,18,1.0,5.0,75,0.00,,,0.04,106.000000,,2013-07-01 21:53:00,
2013-07-01 18:01:00,71.0,63.0,-100.00,NNE,18,1.0,5.0,75,0.00,,,0.04,106.000000,,2013-07-01 22:01:00,
2013-07-01 18:12:00,71.0,63.0,-100.00,NNE,18,1.0,5.0,75,0.00,,,0.04,106.000000,,2013-07-01 22:12:00,
2013-07-01 18:24:00,71.0,63.0,-100.00,NNE,18,1.0,5.0,75,0.00,,,0.04,106.000000,,2013-07-01 22:24:00,
2013-07-01 18:53:00,68.0,66.0,-100.00,SE,133,0.0,3.0,92,0.00,,,0.04,48.000000,,2013-07-01 22:53:00,
2013-07-01 19:01:00,68.0,66.0,-100.00,SE,133,0.0,3.0,92,0.00,,,0.04,48.000000,,2013-07-01 23:01:00,
2013-07-01 19:11:00,68.0,66.0,-100.00,SE,133,0.0,3.0,92,0.00,,,0.04,48.000000,,2013-07-01 23:11:00,
2013-07-01 19:22:00,68.0,66.0,-100.00,SE,133,0.0,3.0,92,0.00,,,0.04,48.000000,,2013-07-01 23:22:00,
2013-07-01 19:53:00,65.0,63.0,-100.00,ESE,104,2.0,3.0,94,0.00,,,0.04,32.000000,,2013-07-01 23:53:00,
2013-07-01 20:01:00,65.0,63.0,-100.00,ESE,104,2.0,3.0,94,0.00,,,0.04,32.000000,,2013-07-02 00:01:00,
2013-07-01 20:12:00,65.0,63.0,-100.00,ESE,104,2.0,3.0,94,0.00,,,0.04,32.000000,,2013-07-02 00:12:00,
2013-07-01 20:22:00,65.0,63.0,-100.00,ESE,104,2.0,3.0,94,0.00,,,0.04,32.000000,,2013-07-02 00:22:00,
2013-07-01 20:53:00,63.0,62.0,-100.00,SE,129,2.0,3.0,95,0.00,,,0.04,7.000000,,2013-07-02 00:53:00,
2013-07-01 21:01:00,63.0,62.0,-100.00,SE,129,2.0,3.0,95,0.00,,,0.04,7.000000,,2013-07-02 01:01:00,
2013-07-01 21:11:00,63.0,62.0,-100.00,SE,129,2.0,3.0,95,0.00,,,0.04,7.000000,,2013-07-02 01:11:00,
2013-07-01 21:22:00,63.0,62.0,-100.00,SE,129,2.0,3.0,95,0.00,,,0.04,7.000000,,2013-07-02 01:22:00,
2013-07-01 21:53:00,61.0,60.0,-100.00,SSE,166,2.0,4.0,98,0.02,,,0.06,1.000000,,2013-07-02 01:53:00,
2013-07-01 22:02:00,61.0,60.0,-100.00,SSE,166,2.0,4.0,98,0.02,,,0.06,1.000000,,2013-07-02 02:02:00,
2013-07-01 22:12:00,61.0,60.0,-100.00,SSE,166,2.0,4.0,98,0.02,,,0.06,1.000000,,2013-07-02 02:12:00,
2013-07-01 22:22:00,61.0,60.0,-100.00,SSE,166,2.0,4.0,98,0.02,,,0.06,1.000000,,2013-07-02 02:22:00,
2013-07-01 22:53:00,61.0,61.0,-100.00,South,170,0.0,3.0,100,0.02,,,0.08,0.000000,,2013-07-02 02:53:00,
2013-07-01 23:02:00,61.0,61.0,-100.00,South,170,0.0,3.0,100,0.02,,,0.08,0.000000,,2013-07-02 03:02:00,
2013-07-01 23:12:00,61.0,61.0,-100.00,South,170,0.0,3.0,100,0.02,,,0.08,0.000000,,2013-07-02 03:12:00,
2013-07-01 23:24:00,61.0,61.0,-100.00,South,170,0.0,3.0,100,0.02,,,0.08,0.000000,,2013-07-02 03:24:00,